createdAt,value
2019-06-08T00:00:23.546Z,17.21
2019-06-08T00:02:58.633Z,17.27
2019-06-08T00:05:33.789Z,17.22
2019-06-08T00:08:08.908Z,17.25
2019-06-08T00:10:53.537Z,17.21
2019-06-08T00:13:30.365Z,17.18
2019-06-08T00:16:05.576Z,17.07
2019-06-08T00:18:40.647Z,17.05
2019-06-08T00:21:15.693Z,17.08
2019-06-08T00:23:50.865Z,17.05
2019-06-08T00:26:25.900Z,17.02
2019-06-08T00:29:01.357Z,16.97
2019-06-08T00:31:42.363Z,16.98
2019-06-08T00:34:18.476Z,17.03
2019-06-08T00:36:53.869Z,16.96
2019-06-08T00:39:29.038Z,17.02
2019-06-08T00:42:12.913Z,16.92
2019-06-08T00:44:48.032Z,16.99
2019-06-08T00:47:24.615Z,16.98
2019-06-08T00:49:59.749Z,16.97
2019-06-08T00:52:41.260Z,16.97
2019-06-08T00:55:17.434Z,17.00
2019-06-08T00:57:53.691Z,16.98
2019-06-08T01:00:28.877Z,16.91
2019-06-08T01:03:13.293Z,16.97
2019-06-08T01:05:48.393Z,16.89
2019-06-08T01:08:23.904Z,16.84
2019-06-08T01:11:00.315Z,16.81
2019-06-08T01:13:37.426Z,16.54
2019-06-08T01:16:12.519Z,16.50
2019-06-08T01:18:51.047Z,16.46
2019-06-08T01:21:27.685Z,16.48
2019-06-08T01:24:12.066Z,16.44
2019-06-08T01:26:47.209Z,16.29
2019-06-08T01:29:32.164Z,16.27
2019-06-08T01:32:07.334Z,16.40
2019-06-08T01:34:42.537Z,16.34
2019-06-08T01:37:17.581Z,16.31
2019-06-08T01:40:02.379Z,16.20
2019-06-08T01:42:39.152Z,16.14
2019-06-08T01:45:21.963Z,16.19
2019-06-08T01:47:57.673Z,16.11
2019-06-08T01:50:33.181Z,16.09
2019-06-08T01:53:08.500Z,16.18
2019-06-08T01:55:43.669Z,16.20
2019-06-08T01:58:18.763Z,16.08
2019-06-08T02:00:53.982Z,16.09
2019-06-08T02:03:30.263Z,16.06
2019-06-08T02:06:06.343Z,16.04
2019-06-08T02:08:41.781Z,16.02
2019-06-08T02:11:22.530Z,16.06
2019-06-08T02:13:57.596Z,15.96
2019-06-08T02:16:33.348Z,15.99
2019-06-08T02:19:08.530Z,15.94
2019-06-08T02:21:52.597Z,16.01
2019-06-08T02:24:29.146Z,15.99
2019-06-08T02:27:04.347Z,16.06
2019-06-08T02:29:39.957Z,16.00
2019-06-08T02:32:21.178Z,16.16
2019-06-08T02:34:56.248Z,16.17
2019-06-08T02:37:32.996Z,16.34
2019-06-08T02:40:09.803Z,16.26
2019-06-08T02:42:45.071Z,16.28
2019-06-08T02:45:21.647Z,16.25
2019-06-08T02:48:03.008Z,16.37
2019-06-08T02:50:55.979Z,16.30
2019-06-08T02:53:32.339Z,16.36
2019-06-08T02:56:09.569Z,16.38
2019-06-08T02:58:45.414Z,16.25
2019-06-08T03:01:23.707Z,16.25
2019-06-08T03:03:59.900Z,16.28
2019-06-08T03:06:40.819Z,16.22
2019-06-08T03:09:15.499Z,16.29
2019-06-08T03:11:53.108Z,16.24
2019-06-08T03:14:30.999Z,16.25
2019-06-08T03:17:06.162Z,16.18
2019-06-08T03:19:41.970Z,16.25
2019-06-08T03:22:17.190Z,16.29
2019-06-08T03:24:52.247Z,16.32
2019-06-08T03:27:27.316Z,16.41
2019-06-08T03:30:14.963Z,16.25
2019-06-08T03:32:47.039Z,16.31
2019-06-08T03:35:16.210Z,16.15
2019-06-08T03:37:51.278Z,16.19
2019-06-08T03:40:26.337Z,16.21
2019-06-08T03:43:02.499Z,16.31
2019-06-08T03:45:38.231Z,16.25
2019-06-08T03:48:13.390Z,16.28
2019-06-08T03:50:52.038Z,16.35
2019-06-08T03:53:27.083Z,16.44
2019-06-08T03:56:02.269Z,16.45
2019-06-08T03:58:38.594Z,16.49
2019-06-08T04:01:14.410Z,16.60
2019-06-08T04:03:50.324Z,16.47
2019-06-08T04:06:25.485Z,16.36
2019-06-08T04:09:00.678Z,16.39
2019-06-08T04:11:37.793Z,16.38
2019-06-08T04:14:13.058Z,16.42
2019-06-08T04:16:48.258Z,16.40
2019-06-08T04:19:23.282Z,16.58
2019-06-08T04:22:05.983Z,16.65
2019-06-08T04:24:42.473Z,16.68
2019-06-08T04:27:18.784Z,16.64
2019-06-08T04:29:54.207Z,16.58
2019-06-08T04:32:32.337Z,16.53
2019-06-08T04:35:07.653Z,16.52
2019-06-08T04:37:58.400Z,16.64
2019-06-08T04:40:33.755Z,16.50
2019-06-08T04:43:12.662Z,16.67
2019-06-08T04:45:49.361Z,16.69
2019-06-08T04:48:25.539Z,16.54
2019-06-08T04:51:00.594Z,16.40
2019-06-08T04:53:43.190Z,16.48
2019-06-08T04:56:18.957Z,16.46
2019-06-08T04:58:54.182Z,16.34
2019-06-08T05:01:29.258Z,16.39
2019-06-08T05:04:04.432Z,16.36
2019-06-08T05:06:40.968Z,16.41
2019-06-08T05:09:23.024Z,16.47
2019-06-08T05:11:58.104Z,16.55
2019-06-08T05:14:33.377Z,16.54
2019-06-08T05:17:08.439Z,16.55
2019-06-08T05:19:52.769Z,16.58
2019-06-08T05:22:27.880Z,16.65
2019-06-08T05:25:02.938Z,16.68
2019-06-08T05:27:39.263Z,16.77
2019-06-08T05:30:15.062Z,16.74
2019-06-08T05:32:50.205Z,16.79
2019-06-08T05:35:25.244Z,16.70
2019-06-08T05:38:00.327Z,16.71
2019-06-08T05:40:35.562Z,16.65
2019-06-08T05:43:10.807Z,16.59
2019-06-08T05:45:46.025Z,16.68
2019-06-08T05:48:22.682Z,16.83
2019-06-08T05:51:04.566Z,16.80
2019-06-08T05:53:39.761Z,16.92
2019-06-08T05:56:14.814Z,16.94
2019-06-08T05:58:50.463Z,16.93
2019-06-08T06:01:32.791Z,16.99
2019-06-08T06:04:07.974Z,16.93
2019-06-08T06:06:42.923Z,16.76
2019-06-08T06:09:18.040Z,16.80
2019-06-08T06:12:02.671Z,16.87
2019-06-08T06:14:37.767Z,16.84
2019-06-08T06:17:12.926Z,16.90
2019-06-08T06:19:51.498Z,16.91
2019-06-08T06:22:26.798Z,17.11
2019-06-08T06:25:02.026Z,17.08
2019-06-08T06:27:37.149Z,17.06
2019-06-08T06:30:13.045Z,17.10
2019-06-08T06:32:48.201Z,17.15
2019-06-08T06:35:23.304Z,17.05
2019-06-08T06:38:04.964Z,17.06
2019-06-08T06:40:40.258Z,16.98
2019-06-08T06:43:23.618Z,16.96
2019-06-08T06:45:58.772Z,17.06
2019-06-08T06:48:33.942Z,16.94
2019-06-08T06:51:09.136Z,16.85
2019-06-08T06:53:53.767Z,16.88
2019-06-08T06:56:28.966Z,16.86
2019-06-08T06:59:12.585Z,16.78
2019-06-08T07:01:52.634Z,16.93
2019-06-08T07:04:30.737Z,16.73
2019-06-08T07:07:06.052Z,16.74
2019-06-08T07:09:41.381Z,16.68
2019-06-08T07:12:16.533Z,16.72
2019-06-08T07:14:51.655Z,16.76
2019-06-08T07:17:26.724Z,16.85
2019-06-08T07:20:02.470Z,16.55
2019-06-08T07:22:37.579Z,16.51
2019-06-08T07:25:13.317Z,16.44
2019-06-08T07:27:48.928Z,16.36
2019-06-08T07:30:33.094Z,16.47
2019-06-08T07:33:08.507Z,16.47
2019-06-08T07:35:43.656Z,16.49
2019-06-08T07:38:18.784Z,16.48
2019-06-08T07:40:55.912Z,16.42
2019-06-08T07:43:30.698Z,16.40
2019-06-08T07:46:05.974Z,16.41
2019-06-08T07:48:41.168Z,16.46
2019-06-08T07:51:16.421Z,16.40
2019-06-08T07:53:52.012Z,16.37
2019-06-08T07:56:29.256Z,16.56
2019-06-08T07:59:06.169Z,16.65
2019-06-08T08:01:46.106Z,16.54
2019-06-08T08:04:21.224Z,16.55
2019-06-08T08:06:59.038Z,16.70
2019-06-08T08:09:34.213Z,16.76
2019-06-08T08:12:12.158Z,16.71
2019-06-08T08:14:46.272Z,16.68
2019-06-08T08:17:21.522Z,16.67
2019-06-08T08:19:57.349Z,16.62
2019-06-08T08:22:32.662Z,16.59
2019-06-08T08:25:11.695Z,16.55
2019-06-08T08:27:53.552Z,16.60
2019-06-08T08:30:28.672Z,16.76
2019-06-08T08:33:13.842Z,16.67
2019-06-08T08:35:50.618Z,16.65
2019-06-08T08:38:32.675Z,16.71
2019-06-08T08:41:10.744Z,16.79
2019-06-08T08:43:44.896Z,16.82
2019-06-08T08:46:20.270Z,16.66
2019-06-08T08:49:04.613Z,16.42
2019-06-08T08:51:33.504Z,16.23
2019-06-08T08:54:12.431Z,16.15
2019-06-08T08:56:50.625Z,16.16
2019-06-08T08:59:33.742Z,15.98
2019-06-08T09:02:11.492Z,15.82
2019-06-08T09:04:47.741Z,15.99
2019-06-08T09:07:22.861Z,16.07
2019-06-08T09:10:00.593Z,16.15
2019-06-08T09:12:37.665Z,15.92
2019-06-08T09:15:12.802Z,16.01
2019-06-08T09:17:52.169Z,16.15
2019-06-08T09:20:28.499Z,16.22
2019-06-08T09:23:14.718Z,16.09
2019-06-08T09:25:40.937Z,16.06
2019-06-08T09:28:18.663Z,16.00
2019-06-08T09:30:54.132Z,15.94
2019-06-08T09:33:29.384Z,15.93
2019-06-08T09:36:04.983Z,15.96
2019-06-08T09:38:40.366Z,15.89
2019-06-08T09:41:15.606Z,15.95
2019-06-08T09:43:50.817Z,15.77
2019-06-08T09:46:27.792Z,15.73
2019-06-08T09:49:10.997Z,15.70
2019-06-08T09:51:42.485Z,15.67
2019-06-08T09:54:18.435Z,15.51
2019-06-08T09:56:53.855Z,15.67
2019-06-08T09:59:30.097Z,15.59
2019-06-08T10:02:12.199Z,15.69
2019-06-08T10:04:42.885Z,15.75
2019-06-08T10:07:18.618Z,15.67
2019-06-08T10:09:58.500Z,15.62
2019-06-08T10:12:32.331Z,15.59
2019-06-08T10:15:08.378Z,15.56
2019-06-08T10:17:43.729Z,15.58
2019-06-08T10:20:19.090Z,15.71
2019-06-08T10:22:54.818Z,15.73
2019-06-08T10:25:30.688Z,15.50
2019-06-08T10:28:13.661Z,15.52
2019-06-08T10:30:48.314Z,15.60
2019-06-08T10:33:29.475Z,15.50
2019-06-08T10:36:06.086Z,15.61
2019-06-08T10:38:41.753Z,15.61
2019-06-08T10:41:21.106Z,15.60
2019-06-08T10:44:01.205Z,15.62
2019-06-08T10:46:40.278Z,15.60
2019-06-08T10:49:19.398Z,15.72
2019-06-08T10:51:54.601Z,15.70
2019-06-08T10:54:29.796Z,15.69
2019-06-08T10:57:07.369Z,15.74
2019-06-08T10:59:48.813Z,15.76
2019-06-08T11:02:23.986Z,15.73
2019-06-08T11:05:04.680Z,15.68
2019-06-08T11:07:38.028Z,15.76
2019-06-08T11:10:14.143Z,15.85
2019-06-08T11:12:50.933Z,15.96
2019-06-08T11:15:29.370Z,15.97
2019-06-08T11:18:05.874Z,16.08
2019-06-08T11:20:40.041Z,16.14
2019-06-08T11:23:15.533Z,16.14
2019-06-08T11:25:51.368Z,16.20
2019-06-08T11:28:28.364Z,16.24
2019-06-08T11:31:16.247Z,16.30
2019-06-08T11:33:51.959Z,16.29
2019-06-08T11:36:29.032Z,16.32
2019-06-08T11:39:06.805Z,16.28
2019-06-08T11:41:42.704Z,16.27
2019-06-08T11:44:18.307Z,16.34
2019-06-08T11:46:57.372Z,16.39
2019-06-08T11:49:31.921Z,16.42
2019-06-08T11:52:11.170Z,16.49
2019-06-08T11:54:48.184Z,16.58
2019-06-08T11:57:30.402Z,16.55
2019-06-08T12:00:14.977Z,16.56
2019-06-08T12:02:53.647Z,16.56
2019-06-08T12:05:28.975Z,16.58
2019-06-08T12:08:04.401Z,16.67
2019-06-08T12:10:41.139Z,16.91
2019-06-08T12:13:17.667Z,16.87
2019-06-08T12:15:53.130Z,17.13
2019-06-08T12:18:34.135Z,17.04
2019-06-08T12:21:11.283Z,16.95
2019-06-08T12:23:46.287Z,16.82
2019-06-08T12:26:21.571Z,16.80
2019-06-08T12:29:03.159Z,16.68
2019-06-08T12:31:38.424Z,16.76
2019-06-08T12:34:20.218Z,16.82
2019-06-08T12:36:55.387Z,17.05
2019-06-08T12:39:30.636Z,17.38
2019-06-08T12:42:11.281Z,17.55
2019-06-08T12:44:43.756Z,17.76
2019-06-08T12:47:26.499Z,17.40
2019-06-08T12:50:01.699Z,17.42
2019-06-08T12:52:39.193Z,17.87
2019-06-08T12:55:18.419Z,18.62
2019-06-08T12:57:51.670Z,19.17
2019-06-08T13:00:30.929Z,18.77
2019-06-08T13:03:08.205Z,18.97
2019-06-08T13:05:43.239Z,19.07
2019-06-08T13:08:21.509Z,18.57
2019-06-08T13:11:01.120Z,18.19
2019-06-08T13:13:37.775Z,18.16
2019-06-08T13:16:14.543Z,18.15
2019-06-08T13:18:49.761Z,17.72
2019-06-08T13:21:35.389Z,17.67
2019-06-08T13:24:09.878Z,17.50
2019-06-08T13:26:45.629Z,17.52
2019-06-08T13:29:22.215Z,17.58
2019-06-08T13:31:58.688Z,17.73
2019-06-08T13:34:34.725Z,17.70
2019-06-08T13:37:10.627Z,17.64
2019-06-08T13:39:46.013Z,17.48
2019-06-08T13:42:23.107Z,17.18
2019-06-08T13:44:58.540Z,17.10
2019-06-08T13:47:41.471Z,17.53
2019-06-08T13:50:19.242Z,17.56
2019-06-08T13:52:59.635Z,17.56
2019-06-08T13:55:48.605Z,17.49
2019-06-08T13:58:13.061Z,17.41
2019-06-08T14:00:50.130Z,17.44
2019-06-08T14:03:31.603Z,17.89
2019-06-08T14:06:07.818Z,18.40
2019-06-08T14:08:49.963Z,18.36
2019-06-08T14:11:25.967Z,18.16
2019-06-08T14:14:10.862Z,17.96
2019-06-08T14:16:50.452Z,17.93
2019-06-08T14:19:31.374Z,17.99
2019-06-08T14:22:10.950Z,17.93
2019-06-08T14:24:47.813Z,18.01
2019-06-08T14:27:23.730Z,18.03
2019-06-08T14:29:58.876Z,17.93
2019-06-08T14:32:34.969Z,17.80
2019-06-08T14:35:10.198Z,17.68
2019-06-08T14:37:48.187Z,17.62
2019-06-08T14:40:23.445Z,17.65
2019-06-08T14:42:58.773Z,18.00
2019-06-08T14:45:33.889Z,18.05
2019-06-08T14:48:09.138Z,18.11
2019-06-08T14:50:44.378Z,18.23
2019-06-08T14:53:20.417Z,18.44
2019-06-08T14:56:05.716Z,18.67
2019-06-08T14:58:35.022Z,18.94
2019-06-08T15:01:10.420Z,18.90
2019-06-08T15:03:45.516Z,18.64
2019-06-08T15:06:21.106Z,18.37
2019-06-08T15:08:58.194Z,18.45
2019-06-08T15:11:35.260Z,18.68
2019-06-08T15:14:12.570Z,18.71
2019-06-08T15:16:49.370Z,18.44
2019-06-08T15:19:29.510Z,18.01
2019-06-08T15:22:05.371Z,17.94
2019-06-08T15:24:40.653Z,18.05
2019-06-08T15:27:20.954Z,18.33
2019-06-08T15:29:52.963Z,18.76
2019-06-08T15:32:32.345Z,18.84
2019-06-08T15:35:08.145Z,19.06
2019-06-08T15:37:42.972Z,19.25
2019-06-08T15:40:21.516Z,18.94
2019-06-08T15:42:58.562Z,19.15
2019-06-08T15:45:34.240Z,19.27
2019-06-08T15:48:12.806Z,19.37
2019-06-08T15:50:49.450Z,19.36
2019-06-08T15:53:29.064Z,19.46
2019-06-08T15:56:03.929Z,19.36
2019-06-08T15:58:42.238Z,18.74
2019-06-08T16:01:17.408Z,18.30
2019-06-08T16:03:52.646Z,18.26
2019-06-08T16:06:27.854Z,18.13
2019-06-08T16:09:03.241Z,18.23
2019-06-08T16:11:40.160Z,18.26
2019-06-08T16:14:15.345Z,18.34
2019-06-08T16:16:50.658Z,18.43
2019-06-08T16:19:29.624Z,18.38
2019-06-08T16:22:04.979Z,18.74
2019-06-08T16:24:40.182Z,19.09
2019-06-08T16:27:15.405Z,18.94
2019-06-08T16:29:59.693Z,18.82
2019-06-08T16:32:35.418Z,18.76
2019-06-08T16:35:11.082Z,18.68
2019-06-08T16:37:46.326Z,18.60
2019-06-08T16:40:32.003Z,18.47
2019-06-08T16:43:07.965Z,18.34
2019-06-08T16:45:44.798Z,18.21
2019-06-08T16:48:20.467Z,18.23
2019-06-08T16:50:55.751Z,18.27
2019-06-08T16:53:32.529Z,18.37
2019-06-08T16:56:08.613Z,18.50
2019-06-08T16:58:43.905Z,18.27
2019-06-08T17:01:19.097Z,18.18
2019-06-08T17:03:54.291Z,18.27
2019-06-08T17:06:29.433Z,18.27
2019-06-08T17:09:07.185Z,17.93
2019-06-08T17:11:48.958Z,17.77
2019-06-08T17:14:26.118Z,17.85
2019-06-08T17:17:01.945Z,17.90
2019-06-08T17:19:38.742Z,18.16
2019-06-08T17:22:13.914Z,18.51
2019-06-08T17:24:49.203Z,18.29
2019-06-08T17:27:31.071Z,18.37
2019-06-08T17:30:08.590Z,18.35
2019-06-08T17:32:52.912Z,18.35
2019-06-08T17:35:31.403Z,18.31
2019-06-08T17:38:06.560Z,18.37
2019-06-08T17:40:42.389Z,18.26
2019-06-08T17:43:17.939Z,18.07
2019-06-08T17:45:53.229Z,17.96
2019-06-08T17:48:28.411Z,18.00
2019-06-08T17:51:03.647Z,17.92
2019-06-08T17:53:39.088Z,17.82
2019-06-08T17:56:14.223Z,17.61
2019-06-08T17:59:01.234Z,17.49
2019-06-08T18:01:37.476Z,17.54
2019-06-08T18:04:19.386Z,17.46
2019-06-08T18:06:54.694Z,17.44
2019-06-08T18:09:40.673Z,17.49
2019-06-08T18:12:19.109Z,17.40
2019-06-08T18:14:57.918Z,17.33
2019-06-08T18:17:34.026Z,17.29
2019-06-08T18:20:12.908Z,17.39
2019-06-08T18:22:49.367Z,17.85
2019-06-08T18:25:27.883Z,17.80
2019-06-08T18:28:10.234Z,17.96
2019-06-08T18:30:42.921Z,18.13
2019-06-08T18:33:18.146Z,18.04
2019-06-08T18:35:53.591Z,17.73
2019-06-08T18:38:28.687Z,17.61
2019-06-08T18:41:03.778Z,17.58
2019-06-08T18:43:39.998Z,17.47
2019-06-08T18:46:17.830Z,17.34
2019-06-08T18:48:52.939Z,17.21
2019-06-08T18:51:30.754Z,17.18
2019-06-08T18:54:14.328Z,17.08
2019-06-08T18:56:43.719Z,17.02
2019-06-08T18:59:19.853Z,17.05
2019-06-08T19:02:01.160Z,16.99
2019-06-08T19:04:37.826Z,16.90
2019-06-08T19:07:13.040Z,16.89
2019-06-08T19:09:49.493Z,16.89
2019-06-08T19:12:31.484Z,16.81
2019-06-08T19:15:08.302Z,16.86
2019-06-08T19:17:50.345Z,16.78
2019-06-08T19:20:21.134Z,16.75
2019-06-08T19:23:03.139Z,16.82
2019-06-08T19:25:41.268Z,16.76
2019-06-08T19:28:17.546Z,16.66
2019-06-08T19:30:52.177Z,16.60
2019-06-08T19:33:31.062Z,16.54
2019-06-08T19:36:07.738Z,16.51
2019-06-08T19:38:54.537Z,16.43
2019-06-08T19:41:28.277Z,16.37
2019-06-08T19:44:09.933Z,16.32
2019-06-08T19:46:47.588Z,16.25
2019-06-08T19:49:31.744Z,16.18
2019-06-08T19:52:08.549Z,16.10
2019-06-08T19:54:47.090Z,16.05
2019-06-08T19:57:20.598Z,15.97
2019-06-08T19:59:57.551Z,15.90
2019-06-08T20:02:32.788Z,15.92
2019-06-08T20:05:10.549Z,15.88
2019-06-08T20:07:49.157Z,15.87
2019-06-08T20:10:27.721Z,15.88
2019-06-08T20:13:03.506Z,15.86
2019-06-08T20:15:40.682Z,15.87
2019-06-08T20:18:17.202Z,15.82
2019-06-08T20:20:54.525Z,15.76
2019-06-08T20:23:29.799Z,15.66
2019-06-08T20:26:04.998Z,15.57
2019-06-08T20:28:41.983Z,15.51
2019-06-08T20:31:18.029Z,15.48
2019-06-08T20:33:53.838Z,15.52
2019-06-08T20:36:29.480Z,15.55
2019-06-08T20:39:07.382Z,15.51
2019-06-08T20:41:43.799Z,15.46
2019-06-08T20:44:19.177Z,15.35
2019-06-08T20:46:54.401Z,15.35
2019-06-08T20:49:29.483Z,15.24
2019-06-08T20:52:04.537Z,15.34
2019-06-08T20:54:42.757Z,15.44
2019-06-08T20:57:18.736Z,15.55
2019-06-08T20:59:55.067Z,15.57
2019-06-08T21:02:30.612Z,15.58
2019-06-08T21:05:07.871Z,15.64
2019-06-08T21:07:43.987Z,15.59
2019-06-08T21:10:20.053Z,15.62
2019-06-08T21:13:01.857Z,15.58
2019-06-08T21:15:38.354Z,15.49
2019-06-08T21:18:19.808Z,15.51
2019-06-08T21:20:55.847Z,15.52
2019-06-08T21:23:41.004Z,15.55
2019-06-08T21:26:17.871Z,15.59
2019-06-08T21:29:01.714Z,15.58
2019-06-08T21:31:37.836Z,15.52
2019-06-08T21:34:19.776Z,15.50
2019-06-08T21:36:56.519Z,15.50
2019-06-08T21:39:40.492Z,15.49
2019-06-08T21:42:15.557Z,15.45
2019-06-08T21:44:53.102Z,15.43
2019-06-08T21:47:27.420Z,15.48
2019-06-08T21:50:03.601Z,15.36
2019-06-08T21:52:39.203Z,15.24
2019-06-08T21:55:14.383Z,15.24
2019-06-08T21:57:52.272Z,15.22
2019-06-08T22:00:39.405Z,15.22
2019-06-08T22:03:08.101Z,15.19
2019-06-08T22:05:43.367Z,15.19
2019-06-08T22:08:18.448Z,15.14
2019-06-08T22:10:54.358Z,15.10
2019-06-08T22:13:29.610Z,15.19
2019-06-08T22:16:07.731Z,15.10
2019-06-08T22:18:41.621Z,15.08
2019-06-08T22:21:20.087Z,15.09
2019-06-08T22:23:57.816Z,15.04
2019-06-08T22:26:33.091Z,15.07
2019-06-08T22:29:48.448Z,15.06
2019-06-08T22:32:27.662Z,14.99
2019-06-08T22:35:03.567Z,14.93
2019-06-08T22:37:38.698Z,14.95
2019-06-08T22:40:49.328Z,14.91
2019-06-08T22:43:24.387Z,14.94
2019-06-08T22:46:01.716Z,14.88
2019-06-08T22:48:38.373Z,14.86
2019-06-08T22:51:48.229Z,14.97
2019-06-08T22:54:23.279Z,14.92
2019-06-08T22:57:01.414Z,14.85
2019-06-08T22:59:37.184Z,14.77
2019-06-08T23:02:48.553Z,14.65
2019-06-08T23:05:23.795Z,14.68
2019-06-08T23:08:33.489Z,14.69
2019-06-08T23:11:08.773Z,14.63
2019-06-08T23:14:01.435Z,14.63
2019-06-08T23:16:37.917Z,14.59
2019-06-08T23:19:13.003Z,14.56
2019-06-08T23:21:48.179Z,14.63
2019-06-08T23:24:29.095Z,14.66
2019-06-08T23:27:04.400Z,14.67
2019-06-08T23:29:39.435Z,14.55
2019-06-08T23:32:14.513Z,14.54
2019-06-08T23:34:49.558Z,14.58
2019-06-08T23:37:24.652Z,14.53
2019-06-08T23:40:09.465Z,14.45
2019-06-08T23:42:44.644Z,14.39
2019-06-08T23:45:19.687Z,14.37
2019-06-08T23:47:57.002Z,14.40
2019-06-08T23:50:40.117Z,14.28
2019-06-08T23:53:15.391Z,14.24
2019-06-08T23:55:50.439Z,14.20
2019-06-08T23:58:27.724Z,14.14
